sensor_id;sensor_type;location;lat;lon;timestamp;pressure;altitude;pressure_sealevel;temperature;humidity
22572;BME280;11452;53.368;14.658;2022-07-06T00:03:23;101460.36;;;18.04;62.32
22572;BME280;11452;53.368;14.658;2022-07-06T00:08:29;101461.22;;;18.05;62.82
22572;BME280;11452;53.368;14.658;2022-07-06T00:13:35;101471.48;;;17.88;63.07
22572;BME280;11452;53.368;14.658;2022-07-06T00:18:40;101467.58;;;17.92;63.95
22572;BME280;11452;53.368;14.658;2022-07-06T00:23:46;101466.38;;;18.02;64.53
22572;BME280;11452;53.368;14.658;2022-07-06T00:28:52;101454.12;;;18.09;64.70
22572;BME280;11452;53.368;14.658;2022-07-06T00:33:57;101454.03;;;18.16;64.89
22572;BME280;11452;53.368;14.658;2022-07-06T00:39:03;101452.91;;;18.19;65.14
22572;BME280;11452;53.368;14.658;2022-07-06T00:44:08;101450.72;;;18.24;65.41
22572;BME280;11452;53.368;14.658;2022-07-06T00:49:14;101444.21;;;18.26;65.14
22572;BME280;11452;53.368;14.658;2022-07-06T00:54:37;101441.11;;;18.14;65.59
22572;BME280;11452;53.368;14.658;2022-07-06T00:59:45;101431.03;;;18.16;65.86
22572;BME280;11452;53.368;14.658;2022-07-06T01:04:50;101440.47;;;18.11;65.93
22572;BME280;11452;53.368;14.658;2022-07-06T01:09:56;101442.40;;;18.03;66.14
22572;BME280;11452;53.368;14.658;2022-07-06T01:15:03;101441.65;;;18.01;66.21
22572;BME280;11452;53.368;14.658;2022-07-06T01:20:20;101442.77;;;18.04;66.36
22572;BME280;11452;53.368;14.658;2022-07-06T01:25:26;101439.80;;;18.02;66.45
22572;BME280;11452;53.368;14.658;2022-07-06T01:30:32;101444.61;;;17.98;66.13
22572;BME280;11452;53.368;14.658;2022-07-06T01:35:38;101441.61;;;17.90;66.44
22572;BME280;11452;53.368;14.658;2022-07-06T01:40:44;101438.80;;;17.91;66.46
22572;BME280;11452;53.368;14.658;2022-07-06T01:45:49;101435.48;;;17.93;66.23
22572;BME280;11452;53.368;14.658;2022-07-06T01:50:55;101424.18;;;17.94;66.21
22572;BME280;11452;53.368;14.658;2022-07-06T01:56:19;101428.95;;;17.90;66.09
22572;BME280;11452;53.368;14.658;2022-07-06T02:01:44;101430.88;;;17.83;65.96
22572;BME280;11452;53.368;14.658;2022-07-06T02:07:07;101426.06;;;17.75;66.05
22572;BME280;11452;53.368;14.658;2022-07-06T02:12:31;101433.20;;;17.63;66.12
22572;BME280;11452;53.368;14.658;2022-07-06T02:17:54;101427.09;;;17.49;66.04
22572;BME280;11452;53.368;14.658;2022-07-06T02:23:18;101433.10;;;17.47;66.70
22572;BME280;11452;53.368;14.658;2022-07-06T02:28:41;101441.59;;;17.48;66.64
22572;BME280;11452;53.368;14.658;2022-07-06T02:34:04;101446.88;;;17.49;66.48
22572;BME280;11452;53.368;14.658;2022-07-06T02:39:28;101439.27;;;17.49;66.61
22572;BME280;11452;53.368;14.658;2022-07-06T02:44:53;101433.95;;;17.42;66.45
22572;BME280;11452;53.368;14.658;2022-07-06T02:50:17;101444.61;;;17.38;66.39
22572;BME280;11452;53.368;14.658;2022-07-06T02:55:41;101448.77;;;17.36;66.78
22572;BME280;11452;53.368;14.658;2022-07-06T03:01:04;101448.88;;;17.35;66.72
22572;BME280;11452;53.368;14.658;2022-07-06T03:06:28;101447.69;;;17.39;66.84
22572;BME280;11452;53.368;14.658;2022-07-06T03:11:52;101447.64;;;17.33;66.78
22572;BME280;11452;53.368;14.658;2022-07-06T03:17:15;101454.50;;;17.31;67.04
22572;BME280;11452;53.368;14.658;2022-07-06T03:22:39;101448.61;;;17.32;67.03
22572;BME280;11452;53.368;14.658;2022-07-06T03:28:02;101449.70;;;17.29;66.96
22572;BME280;11452;53.368;14.658;2022-07-06T03:33:25;101450.19;;;17.29;67.23
22572;BME280;11452;53.368;14.658;2022-07-06T03:38:49;101454.99;;;17.31;67.23
22572;BME280;11452;53.368;14.658;2022-07-06T03:44:13;101460.48;;;17.24;67.15
22572;BME280;11452;53.368;14.658;2022-07-06T03:49:36;101465.27;;;17.26;67.72
22572;BME280;11452;53.368;14.658;2022-07-06T03:55:08;101468.81;;;17.21;67.41
22572;BME280;11452;53.368;14.658;2022-07-06T04:00:29;101455.95;;;17.12;67.57
22572;BME280;11452;53.368;14.658;2022-07-06T04:05:55;101462.22;;;17.12;67.61
22572;BME280;11452;53.368;14.658;2022-07-06T04:11:18;101454.98;;;17.13;67.01
22572;BME280;11452;53.368;14.658;2022-07-06T04:16:41;101463.45;;;17.14;67.44
22572;BME280;11452;53.368;14.658;2022-07-06T04:22:05;101462.56;;;17.26;66.98
22572;BME280;11452;53.368;14.658;2022-07-06T04:27:30;101462.95;;;17.45;66.68
22572;BME280;11452;53.368;14.658;2022-07-06T04:32:53;101466.19;;;17.50;66.53
22572;BME280;11452;53.368;14.658;2022-07-06T04:38:19;101461.05;;;17.53;66.07
22572;BME280;11452;53.368;14.658;2022-07-06T04:43:44;101458.09;;;17.69;66.05
22572;BME280;11452;53.368;14.658;2022-07-06T04:49:09;101456.94;;;17.78;65.35
22572;BME280;11452;53.368;14.658;2022-07-06T04:54:33;101467.60;;;17.74;64.58
22572;BME280;11452;53.368;14.658;2022-07-06T04:59:56;101469.03;;;17.91;65.26
22572;BME280;11452;53.368;14.658;2022-07-06T05:05:19;101463.21;;;18.08;64.64
22572;BME280;11452;53.368;14.658;2022-07-06T05:10:44;101466.38;;;18.02;63.86
22572;BME280;11452;53.368;14.658;2022-07-06T05:16:07;101464.68;;;18.07;63.54
22572;BME280;11452;53.368;14.658;2022-07-06T05:21:31;101467.84;;;17.95;62.67
22572;BME280;11452;53.368;14.658;2022-07-06T05:26:55;101465.95;;;17.90;63.93
22572;BME280;11452;53.368;14.658;2022-07-06T05:32:20;101463.52;;;17.92;63.64
22572;BME280;11452;53.368;14.658;2022-07-06T05:49:56;101460.51;;;18.08;63.80
22572;BME280;11452;53.368;14.658;2022-07-06T05:55:38;101461.71;;;18.04;63.98
22572;BME280;11452;53.368;14.658;2022-07-06T06:01:01;101467.15;;;18.45;64.78
22572;BME280;11452;53.368;14.658;2022-07-06T06:06:26;101462.92;;;18.64;63.65
22572;BME280;11452;53.368;14.658;2022-07-06T06:11:50;101457.93;;;18.47;63.61
22572;BME280;11452;53.368;14.658;2022-07-06T06:17:13;101462.62;;;18.51;62.96
22572;BME280;11452;53.368;14.658;2022-07-06T06:22:50;101456.53;;;18.77;62.41
22572;BME280;11452;53.368;14.658;2022-07-06T06:28:14;101466.50;;;18.76;62.50
22572;BME280;11452;53.368;14.658;2022-07-06T06:33:37;101447.33;;;18.90;62.79
22572;BME280;11452;53.368;14.658;2022-07-06T06:39:00;101454.94;;;18.96;61.81
22572;BME280;11452;53.368;14.658;2022-07-06T06:44:24;101465.05;;;19.11;61.85
22572;BME280;11452;53.368;14.658;2022-07-06T06:49:47;101460.98;;;19.00;60.52
22572;BME280;11452;53.368;14.658;2022-07-06T06:55:10;101448.79;;;18.72;59.51
22572;BME280;11452;53.368;14.658;2022-07-06T07:00:34;101445.46;;;18.96;59.72
22572;BME280;11452;53.368;14.658;2022-07-06T07:05:57;101455.44;;;19.13;58.11
22572;BME280;11452;53.368;14.658;2022-07-06T07:11:20;101458.50;;;19.36;58.64
22572;BME280;11452;53.368;14.658;2022-07-06T07:16:43;101454.19;;;19.50;57.74
22572;BME280;11452;53.368;14.658;2022-07-06T07:22:07;101455.62;;;19.77;55.82
22572;BME280;11452;53.368;14.658;2022-07-06T07:27:30;101458.63;;;19.57;56.02
22572;BME280;11452;53.368;14.658;2022-07-06T07:32:53;101452.42;;;19.71;55.59
22572;BME280;11452;53.368;14.658;2022-07-06T07:38:17;101453.41;;;19.76;56.03
22572;BME280;11452;53.368;14.658;2022-07-06T07:43:41;101449.08;;;19.79;55.21
22572;BME280;11452;53.368;14.658;2022-07-06T07:49:04;101464.20;;;19.93;54.17
22572;BME280;11452;53.368;14.658;2022-07-06T07:54:28;101464.30;;;19.54;53.13
22572;BME280;11452;53.368;14.658;2022-07-06T07:59:51;101475.36;;;19.73;53.93
22572;BME280;11452;53.368;14.658;2022-07-06T08:17:06;101470.31;;;20.06;52.28
22572;BME280;11452;53.368;14.658;2022-07-06T08:22:12;101442.09;;;20.03;51.83
22572;BME280;11452;53.368;14.658;2022-07-06T08:39:12;101430.59;;;20.37;50.54
22572;BME280;11452;53.368;14.658;2022-07-06T08:44:18;101429.89;;;20.50;50.91
22572;BME280;11452;53.368;14.658;2022-07-06T08:49:24;101440.15;;;20.83;49.53
22572;BME280;11452;53.368;14.658;2022-07-06T08:54:30;101443.09;;;20.70;48.68
22572;BME280;11452;53.368;14.658;2022-07-06T08:59:38;101439.55;;;20.43;48.66
22572;BME280;11452;53.368;14.658;2022-07-06T09:04:44;101450.45;;;20.32;48.13
22572;BME280;11452;53.368;14.658;2022-07-06T09:09:52;101455.90;;;20.37;48.40
22572;BME280;11452;53.368;14.658;2022-07-06T09:15:09;101445.06;;;20.53;48.08
22572;BME280;11452;53.368;14.658;2022-07-06T09:20:14;101448.30;;;20.67;48.06
22572;BME280;11452;53.368;14.658;2022-07-06T09:25:27;101458.74;;;20.78;48.06
22572;BME280;11452;53.368;14.658;2022-07-06T09:30:32;101458.75;;;20.93;48.83
22572;BME280;11452;53.368;14.658;2022-07-06T09:35:50;101464.31;;;20.91;48.56
22572;BME280;11452;53.368;14.658;2022-07-06T09:40:57;101468.75;;;21.07;48.84
22572;BME280;11452;53.368;14.658;2022-07-06T09:46:05;101467.16;;;21.05;48.45
22572;BME280;11452;53.368;14.658;2022-07-06T09:51:12;101497.06;;;20.48;47.34
22572;BME280;11452;53.368;14.658;2022-07-06T09:56:18;101511.86;;;19.69;48.58
22572;BME280;11452;53.368;14.658;2022-07-06T10:01:27;101512.88;;;19.29;50.35
22572;BME280;11452;53.368;14.658;2022-07-06T10:06:35;101511.49;;;19.01;51.78
22572;BME280;11452;53.368;14.658;2022-07-06T10:11:47;101511.32;;;18.69;52.53
22572;BME280;11452;53.368;14.658;2022-07-06T10:16:52;101513.80;;;18.72;53.62
22572;BME280;11452;53.368;14.658;2022-07-06T10:22:02;101516.36;;;18.68;54.16
22572;BME280;11452;53.368;14.658;2022-07-06T10:27:08;101509.39;;;18.88;54.42
22572;BME280;11452;53.368;14.658;2022-07-06T10:32:18;101525.41;;;18.91;53.96
22572;BME280;11452;53.368;14.658;2022-07-06T10:37:25;101502.62;;;19.05;54.47
22572;BME280;11452;53.368;14.658;2022-07-06T10:42:49;101508.30;;;19.35;54.93
22572;BME280;11452;53.368;14.658;2022-07-06T10:53:23;101515.52;;;19.90;53.56
22572;BME280;11452;53.368;14.658;2022-07-06T10:58:46;101506.39;;;20.23;52.62
22572;BME280;11452;53.368;14.658;2022-07-06T11:09:08;101506.23;;;20.83;50.66
22572;BME280;11452;53.368;14.658;2022-07-06T11:14:20;101500.55;;;21.01;50.33
22572;BME280;11452;53.368;14.658;2022-07-06T11:19:27;101502.00;;;21.05;49.26
22572;BME280;11452;53.368;14.658;2022-07-06T11:24:35;101503.70;;;21.12;49.61
22572;BME280;11452;53.368;14.658;2022-07-06T11:29:41;101495.61;;;21.16;49.34
22572;BME280;11452;53.368;14.658;2022-07-06T11:34:48;101504.43;;;21.14;47.20
22572;BME280;11452;53.368;14.658;2022-07-06T11:39:54;101477.64;;;20.94;47.12
22572;BME280;11452;53.368;14.658;2022-07-06T11:44:59;101522.28;;;20.65;46.99
22572;BME280;11452;53.368;14.658;2022-07-06T11:50:06;101525.32;;;20.19;47.35
22572;BME280;11452;53.368;14.658;2022-07-06T11:55:19;101505.03;;;19.91;48.43
22572;BME280;11452;53.368;14.658;2022-07-06T12:00:23;101517.12;;;19.87;49.89
22572;BME280;11452;53.368;14.658;2022-07-06T12:05:32;101515.02;;;20.02;50.13
22572;BME280;11452;53.368;14.658;2022-07-06T12:10:37;101513.00;;;20.10;50.29
22572;BME280;11452;53.368;14.658;2022-07-06T12:15:43;101518.36;;;19.89;50.57
22572;BME280;11452;53.368;14.658;2022-07-06T12:20:48;101505.47;;;20.08;50.31
22572;BME280;11452;53.368;14.658;2022-07-06T12:25:54;101499.20;;;20.33;49.28
22572;BME280;11452;53.368;14.658;2022-07-06T12:31:00;101499.34;;;20.32;49.04
22572;BME280;11452;53.368;14.658;2022-07-06T12:36:11;101494.34;;;20.48;48.81
22572;BME280;11452;53.368;14.658;2022-07-06T12:53:29;101498.20;;;21.02;46.39
22572;BME280;11452;53.368;14.658;2022-07-06T13:04:20;101477.04;;;21.06;46.92
22572;BME280;11452;53.368;14.658;2022-07-06T13:15:29;101484.73;;;21.16;45.07
22572;BME280;11452;53.368;14.658;2022-07-06T13:26:44;101468.86;;;22.21;44.53
22572;BME280;11452;53.368;14.658;2022-07-06T13:31:50;101466.91;;;21.73;43.84
22572;BME280;11452;53.368;14.658;2022-07-06T13:36:56;101482.08;;;21.41;43.63
22572;BME280;11452;53.368;14.658;2022-07-06T13:42:01;101467.55;;;21.16;44.19
22572;BME280;11452;53.368;14.658;2022-07-06T13:47:07;101472.97;;;20.91;44.88
22572;BME280;11452;53.368;14.658;2022-07-06T13:52:13;101483.64;;;20.98;45.69
22572;BME280;11452;53.368;14.658;2022-07-06T13:57:18;101485.09;;;21.02;45.72
22572;BME280;11452;53.368;14.658;2022-07-06T14:02:24;101478.77;;;20.92;46.04
22572;BME280;11452;53.368;14.658;2022-07-06T14:07:30;101475.94;;;21.24;46.39
22572;BME280;11452;53.368;14.658;2022-07-06T14:12:35;101463.95;;;21.61;46.28
22572;BME280;11452;53.368;14.658;2022-07-06T14:17:41;101460.45;;;21.74;45.14
22572;BME280;11452;53.368;14.658;2022-07-06T14:22:46;101472.16;;;21.55;44.93
22572;BME280;11452;53.368;14.658;2022-07-06T14:27:52;101466.63;;;21.66;44.88
22572;BME280;11452;53.368;14.658;2022-07-06T14:33:14;101458.41;;;21.82;43.89
22572;BME280;11452;53.368;14.658;2022-07-06T14:38:20;101457.15;;;21.61;43.32
22572;BME280;11452;53.368;14.658;2022-07-06T14:43:27;101460.81;;;21.40;43.16
22572;BME280;11452;53.368;14.658;2022-07-06T14:48:33;101464.06;;;21.19;43.49
22572;BME280;11452;53.368;14.658;2022-07-06T14:53:39;101472.34;;;20.93;43.34
22572;BME280;11452;53.368;14.658;2022-07-06T14:58:44;101470.89;;;20.68;43.73
22572;BME280;11452;53.368;14.658;2022-07-06T15:03:52;101475.13;;;20.61;44.08
22572;BME280;11452;53.368;14.658;2022-07-06T15:08:57;101481.11;;;20.55;44.51
22572;BME280;11452;53.368;14.658;2022-07-06T15:14:04;101479.28;;;20.50;45.06
22572;BME280;11452;53.368;14.658;2022-07-06T15:19:10;101488.18;;;20.46;45.20
22572;BME280;11452;53.368;14.658;2022-07-06T15:24:16;101486.95;;;20.45;45.17
22572;BME280;11452;53.368;14.658;2022-07-06T15:29:22;101468.48;;;20.38;45.63
22572;BME280;11452;53.368;14.658;2022-07-06T15:34:28;101461.52;;;20.46;46.03
22572;BME280;11452;53.368;14.658;2022-07-06T15:39:33;101455.54;;;20.57;46.27
22572;BME280;11452;53.368;14.658;2022-07-06T15:44:41;101459.38;;;20.55;46.42
22572;BME280;11452;53.368;14.658;2022-07-06T15:49:46;101447.44;;;20.67;46.42
22572;BME280;11452;53.368;14.658;2022-07-06T15:54:54;101444.95;;;20.69;46.92
22572;BME280;11452;53.368;14.658;2022-07-06T16:00:00;101439.42;;;20.81;47.06
22572;BME280;11452;53.368;14.658;2022-07-06T16:05:07;101433.35;;;20.67;47.41
22572;BME280;11452;53.368;14.658;2022-07-06T16:10:13;101443.98;;;20.65;47.63
22572;BME280;11452;53.368;14.658;2022-07-06T16:21:20;101441.64;;;20.81;47.76
22572;BME280;11452;53.368;14.658;2022-07-06T16:32:28;101425.77;;;20.77;48.37
22572;BME280;11452;53.368;14.658;2022-07-06T16:37:34;101424.50;;;20.96;48.18
22572;BME280;11452;53.368;14.658;2022-07-06T17:06:57;101412.24;;;20.65;47.91
22572;BME280;11452;53.368;14.658;2022-07-06T17:12:03;101404.85;;;20.62;48.30
22572;BME280;11452;53.368;14.658;2022-07-06T17:17:09;101400.11;;;20.54;47.95
22572;BME280;11452;53.368;14.658;2022-07-06T17:22:15;101405.94;;;20.50;48.05
22572;BME280;11452;53.368;14.658;2022-07-06T17:27:21;101400.59;;;20.38;48.53
22572;BME280;11452;53.368;14.658;2022-07-06T17:32:27;101393.08;;;20.36;48.47
22572;BME280;11452;53.368;14.658;2022-07-06T17:37:34;101382.72;;;20.25;49.05
22572;BME280;11452;53.368;14.658;2022-07-06T17:42:39;101388.00;;;20.11;48.81
22572;BME280;11452;53.368;14.658;2022-07-06T17:47:45;101383.08;;;20.05;49.16
22572;BME280;11452;53.368;14.658;2022-07-06T17:52:50;101387.84;;;19.92;49.15
22572;BME280;11452;53.368;14.658;2022-07-06T17:57:56;101386.67;;;19.85;49.64
22572;BME280;11452;53.368;14.658;2022-07-06T18:03:02;101386.88;;;19.87;49.89
22572;BME280;11452;53.368;14.658;2022-07-06T18:08:08;101382.48;;;19.81;49.95
22572;BME280;11452;53.368;14.658;2022-07-06T18:13:14;101378.42;;;19.75;50.42
22572;BME280;11452;53.368;14.658;2022-07-06T18:18:20;101377.67;;;19.79;50.61
22572;BME280;11452;53.368;14.658;2022-07-06T18:23:26;101377.32;;;19.72;50.63
22572;BME280;11452;53.368;14.658;2022-07-06T18:28:32;101376.14;;;19.65;50.86
22572;BME280;11452;53.368;14.658;2022-07-06T18:33:38;101376.15;;;19.59;51.32
22572;BME280;11452;53.368;14.658;2022-07-06T18:38:44;101373.81;;;19.55;51.44
22572;BME280;11452;53.368;14.658;2022-07-06T18:43:50;101366.56;;;19.44;51.82
22572;BME280;11452;53.368;14.658;2022-07-06T18:48:56;101366.55;;;19.55;53.80
22572;BME280;11452;53.368;14.658;2022-07-06T18:54:01;101357.59;;;20.02;52.57
22572;BME280;11452;53.368;14.658;2022-07-06T18:59:07;101358.81;;;19.77;51.92
22572;BME280;11452;53.368;14.658;2022-07-06T19:04:12;101358.77;;;19.62;52.17
22572;BME280;11452;53.368;14.658;2022-07-06T19:09:18;101358.64;;;19.58;52.32
22572;BME280;11452;53.368;14.658;2022-07-06T19:14:25;101355.96;;;19.41;52.46
22572;BME280;11452;53.368;14.658;2022-07-06T19:19:31;101353.51;;;19.32;52.84
22572;BME280;11452;53.368;14.658;2022-07-06T19:24:36;101351.41;;;19.30;52.98
22572;BME280;11452;53.368;14.658;2022-07-06T19:29:42;101361.55;;;19.23;53.17
22572;BME280;11452;53.368;14.658;2022-07-06T19:34:47;101353.80;;;19.13;53.45
22572;BME280;11452;53.368;14.658;2022-07-06T19:39:53;101357.52;;;19.00;53.62
22572;BME280;11452;53.368;14.658;2022-07-06T19:44:59;101361.70;;;18.93;53.71
22572;BME280;11452;53.368;14.658;2022-07-06T19:50:05;101358.16;;;18.82;54.14
22572;BME280;11452;53.368;14.658;2022-07-06T19:55:10;101354.98;;;18.71;54.43
22572;BME280;11452;53.368;14.658;2022-07-06T20:00:17;101355.09;;;18.64;54.59
22572;BME280;11452;53.368;14.658;2022-07-06T20:05:23;101349.28;;;18.52;54.90
22572;BME280;11452;53.368;14.658;2022-07-06T20:10:28;101337.44;;;18.42;55.08
22572;BME280;11452;53.368;14.658;2022-07-06T20:15:35;101336.22;;;18.34;55.22
22572;BME280;11452;53.368;14.658;2022-07-06T20:20:40;101334.23;;;18.25;55.50
22572;BME280;11452;53.368;14.658;2022-07-06T20:25:46;101325.98;;;18.16;55.74
22572;BME280;11452;53.368;14.658;2022-07-06T20:30:52;101327.20;;;18.12;56.01
22572;BME280;11452;53.368;14.658;2022-07-06T20:35:58;101327.91;;;18.03;56.32
22572;BME280;11452;53.368;14.658;2022-07-06T20:41:04;101328.66;;;17.99;56.52
22572;BME280;11452;53.368;14.658;2022-07-06T20:46:10;101323.72;;;17.93;56.75
22572;BME280;11452;53.368;14.658;2022-07-06T20:51:15;101319.61;;;17.82;56.95
22572;BME280;11452;53.368;14.658;2022-07-06T20:56:21;101321.17;;;17.68;57.41
22572;BME280;11452;53.368;14.658;2022-07-06T21:01:26;101313.66;;;17.65;57.49
22572;BME280;11452;53.368;14.658;2022-07-06T21:06:32;101310.55;;;17.59;57.69
22572;BME280;11452;53.368;14.658;2022-07-06T21:11:42;101313.83;;;17.51;57.80
22572;BME280;11452;53.368;14.658;2022-07-06T21:16:48;101314.05;;;17.43;57.98
22572;BME280;11452;53.368;14.658;2022-07-06T21:21:53;101297.43;;;17.36;58.21
22572;BME280;11452;53.368;14.658;2022-07-06T21:26:59;101298.86;;;17.29;58.36
22572;BME280;11452;53.368;14.658;2022-07-06T21:32:05;101298.97;;;17.22;58.61
22572;BME280;11452;53.368;14.658;2022-07-06T21:37:11;101296.45;;;17.13;58.93
22572;BME280;11452;53.368;14.658;2022-07-06T21:42:16;101298.25;;;17.07;58.99
22572;BME280;11452;53.368;14.658;2022-07-06T21:47:22;101300.56;;;17.01;59.22
22572;BME280;11452;53.368;14.658;2022-07-06T21:52:27;101297.70;;;16.96;59.34
22572;BME280;11452;53.368;14.658;2022-07-06T21:57:33;101306.52;;;16.93;59.46
22572;BME280;11452;53.368;14.658;2022-07-06T22:02:39;101296.42;;;16.89;59.62
22572;BME280;11452;53.368;14.658;2022-07-06T22:07:44;101284.48;;;16.81;59.75
22572;BME280;11452;53.368;14.658;2022-07-06T22:12:51;101273.41;;;16.78;59.99
22572;BME280;11452;53.368;14.658;2022-07-06T22:17:56;101279.02;;;16.70;60.02
22572;BME280;11452;53.368;14.658;2022-07-06T22:23:02;101270.19;;;16.60;60.22
22572;BME280;11452;53.368;14.658;2022-07-06T22:28:07;101268.35;;;16.61;60.43
22572;BME280;11452;53.368;14.658;2022-07-06T22:33:13;101262.91;;;16.55;60.62
22572;BME280;11452;53.368;14.658;2022-07-06T22:38:18;101262.69;;;16.58;60.69
22572;BME280;11452;53.368;14.658;2022-07-06T22:43:24;101259.22;;;16.51;60.84
22572;BME280;11452;53.368;14.658;2022-07-06T22:48:30;101253.55;;;16.48;60.91
22572;BME280;11452;53.368;14.658;2022-07-06T22:53:37;101255.12;;;16.45;61.04
22572;BME280;11452;53.368;14.658;2022-07-06T22:58:43;101253.13;;;16.42;61.15
22572;BME280;11452;53.368;14.658;2022-07-06T23:03:54;101252.27;;;16.41;61.34
22572;BME280;11452;53.368;14.658;2022-07-06T23:09:01;101251.02;;;16.40;61.42
22572;BME280;11452;53.368;14.658;2022-07-06T23:14:07;101245.84;;;16.37;61.55
22572;BME280;11452;53.368;14.658;2022-07-06T23:19:13;101243.89;;;16.39;61.72
22572;BME280;11452;53.368;14.658;2022-07-06T23:24:18;101241.41;;;16.36;61.75
22572;BME280;11452;53.368;14.658;2022-07-06T23:29:24;101240.55;;;16.35;61.76
22572;BME280;11452;53.368;14.658;2022-07-06T23:34:29;101234.94;;;16.38;61.73
22572;BME280;11452;53.368;14.658;2022-07-06T23:39:35;101227.44;;;16.36;61.86
22572;BME280;11452;53.368;14.658;2022-07-06T23:44:40;101224.03;;;16.40;61.88
22572;BME280;11452;53.368;14.658;2022-07-06T23:49:46;101217.34;;;16.45;61.79
22572;BME280;11452;53.368;14.658;2022-07-06T23:54:51;101211.19;;;16.43;61.37
22572;BME280;11452;53.368;14.658;2022-07-06T23:59:57;101206.06;;;16.46;61.39
